Aeroporto :
LOGIN :

Iscrizione | Disclaimer

   EN    FR    IT 

 










Sommario :    VFR   VFR Marginale   IFR   IFR Intensivo   IFR Molto Intensivo
Visibilità : 
Base nubi : 
>= 8 km
>= 3000ft
5 / 8 km
1000 / 3000 ft
1500m / 5 km
500 / 1000 ft
800 / 1500m
200 / 500 ft
< 800m
< 200 ft
Simboli :   Temporali  Nebbia  Neve Forte  Precipitazioni Forti  Vento > 20 kt
SIGMETs :   Varie  Temporali  Ghiacco  Turbolenza  Onda orograficha  Ceneri Vulcaniche







- Altitudine del aeroporto : 995 ft
- Codice IATA : KTW


EPKT - Katowice

ULTIMO METAR :
  • 211830Z 28005KT CAVOK 12/M02 Q1018

METARs OBSOLETI :
  • 211800Z 30005KT CAVOK 11/M01 Q1018
  • 211730Z 34005KT 310V030 CAVOK 15/M02 Q1019
  • 211700Z 35007KT CAVOK 16/M01 Q1019
  • 211630Z 34008KT 310V020 CAVOK 17/M02 Q1019
  • 211600Z 32005KT 300V020 CAVOK 17/M01 Q1019

TAF TAF EPKT
Valido dal 21 a 18 ore il 22 a 18 ore UTC


211730Z 2118/2218 35007KT CAVOK
BECMG 2203/2206 08010KT
TEMPO 2209/2218 11018G28KT SCT040CB
Nessun NOTAM noto per questo aeroporto.



MetMap, La meteo Aeronautica in un colpo d'occhio ! - Copyright ORBIFLY Dicembre 2007 - Disclaimer

ORBIFLY MET'MAP TEAM :

Programmazione e sviluppo : Alexandra Zaïnal
Concezione e sviluppo : Baudouin d'Aumeries
Co-Programmazione e sviluppo : Marc-Olivier Méhu
Supporto tecnico e logistico : Manuel Goepfert
Aiuto per la traduzione : Arnaldo La Scala

Contatto : metmap@orbifly.com




FONTI E CREDITI :

   NOAA